createdAt,value
2022-10-18T00:00:37.595Z,55.50
2022-10-18T00:01:39.399Z,55.73
2022-10-18T00:02:41.211Z,55.25
2022-10-18T00:04:49.827Z,55.94
2022-10-18T00:05:51.923Z,56.71
2022-10-18T00:06:53.581Z,56.66
2022-10-18T00:07:55.279Z,57.02
2022-10-18T00:08:56.936Z,56.97
2022-10-18T00:09:58.577Z,57.42
2022-10-18T00:11:00.309Z,56.92
2022-10-18T00:12:02.032Z,57.23
2022-10-18T00:13:04.151Z,56.86
2022-10-18T00:14:06.004Z,55.90
2022-10-18T00:15:08.438Z,56.35
2022-10-18T00:16:14.322Z,56.13
2022-10-18T00:17:16.173Z,55.31
2022-10-18T00:18:18.101Z,55.59
2022-10-18T00:19:19.811Z,56.21
2022-10-18T00:20:21.466Z,56.20
2022-10-18T00:21:25.153Z,55.96
2022-10-18T00:22:26.788Z,55.69
2022-10-18T00:23:29.723Z,56.86
2022-10-18T00:24:31.376Z,56.61
2022-10-18T00:25:33.008Z,56.57
2022-10-18T00:26:34.746Z,56.87
2022-10-18T00:27:37.040Z,56.70
2022-10-18T00:28:39.721Z,57.00
2022-10-18T00:29:41.439Z,57.09
2022-10-18T00:30:43.185Z,57.38
2022-10-18T00:31:44.953Z,56.69
2022-10-18T00:32:46.598Z,56.13
2022-10-18T00:33:52.713Z,56.09
2022-10-18T00:34:54.396Z,55.95
2022-10-18T00:35:56.058Z,55.75
2022-10-18T00:36:57.707Z,56.63
2022-10-18T00:37:59.434Z,56.73
2022-10-18T00:39:02.813Z,56.05
2022-10-18T00:40:05.466Z,56.43
2022-10-18T00:41:09.265Z,56.70
2022-10-18T00:42:22.686Z,56.67
2022-10-18T00:43:24.315Z,56.56
2022-10-18T00:44:25.919Z,57.39
2022-10-18T00:45:27.965Z,56.60
2022-10-18T00:46:32.523Z,57.07
2022-10-18T00:47:35.868Z,56.13
2022-10-18T00:48:37.552Z,57.02
2022-10-18T00:49:51.732Z,57.15
2022-10-18T00:50:53.678Z,56.81
2022-10-18T00:52:01.029Z,56.40
2022-10-18T00:53:05.070Z,56.99
2022-10-18T00:54:06.821Z,56.80
2022-10-18T00:55:09.417Z,56.41
2022-10-18T00:56:12.444Z,56.89
2022-10-18T00:57:15.068Z,56.67
2022-10-18T00:58:19.977Z,56.72
2022-10-18T00:59:22.314Z,57.90
2022-10-18T01:00:24.281Z,57.82
2022-10-18T01:01:28.461Z,57.37
2022-10-18T01:02:32.924Z,57.46
2022-10-18T01:03:36.400Z,57.18
2022-10-18T01:04:38.138Z,57.57
2022-10-18T01:05:44.848Z,56.51
2022-10-18T01:07:10.969Z,56.99
2022-10-18T01:08:57.521Z,57.51
2022-10-18T01:10:20.402Z,57.76
2022-10-18T01:11:37.006Z,57.59
2022-10-18T01:13:09.731Z,57.51
2022-10-18T01:14:35.898Z,58.11
2022-10-18T01:17:09.201Z,58.18
2022-10-18T01:18:25.223Z,57.86
2022-10-18T01:19:38.976Z,58.20
2022-10-18T01:20:55.639Z,58.08
2022-10-18T01:22:08.377Z,58.12
2022-10-18T01:23:19.473Z,59.10
2022-10-18T01:24:39.787Z,59.05
2022-10-18T01:26:02.264Z,58.28
2022-10-18T01:27:46.188Z,57.76
2022-10-18T01:29:18.839Z,57.96
2022-10-18T01:30:32.423Z,57.91
2022-10-18T01:31:45.446Z,57.28
2022-10-18T01:33:05.572Z,57.16
2022-10-18T01:34:09.695Z,57.27
2022-10-18T01:35:18.893Z,56.81
2022-10-18T01:36:26.065Z,57.04
2022-10-18T01:37:30.019Z,57.17
2022-10-18T01:38:33.344Z,56.92
2022-10-18T01:39:42.656Z,56.77
2022-10-18T01:40:47.572Z,57.12
2022-10-18T01:41:51.576Z,56.59
2022-10-18T01:42:53.280Z,56.63
2022-10-18T01:43:59.910Z,56.88
2022-10-18T01:45:03.939Z,56.03
2022-10-18T01:46:06.292Z,56.74
2022-10-18T01:47:11.355Z,57.13
2022-10-18T01:48:14.202Z,56.86
2022-10-18T01:49:15.930Z,56.90
2022-10-18T01:50:29.752Z,57.05
2022-10-18T01:51:32.932Z,57.14
2022-10-18T01:52:34.870Z,56.76
2022-10-18T01:53:36.627Z,57.17
2022-10-18T01:54:41.602Z,57.79
2022-10-18T01:55:51.174Z,58.05
2022-10-18T01:57:45.388Z,57.71
2022-10-18T01:59:11.890Z,57.79
2022-10-18T02:00:19.166Z,57.37
2022-10-18T02:01:45.171Z,57.98
2022-10-18T02:03:21.425Z,57.77
2022-10-18T02:04:38.444Z,58.75
2022-10-18T02:05:56.420Z,59.05
2022-10-18T02:07:06.035Z,58.90
2022-10-18T02:08:30.067Z,58.66
2022-10-18T02:09:47.266Z,59.33
2022-10-18T02:10:53.518Z,59.39
2022-10-18T02:11:57.232Z,59.16
2022-10-18T02:13:00.146Z,59.55
2022-10-18T02:14:08.574Z,59.89
2022-10-18T02:15:14.487Z,59.63
2022-10-18T02:16:49.485Z,60.40
2022-10-18T02:17:54.430Z,60.81
2022-10-18T02:19:01.970Z,61.06
2022-10-18T02:20:07.016Z,61.37
2022-10-18T02:21:13.460Z,61.02
2022-10-18T02:22:17.161Z,61.61
2022-10-18T02:23:23.760Z,62.78
2022-10-18T02:24:34.684Z,63.13
2022-10-18T02:25:37.195Z,63.92
2022-10-18T02:26:39.339Z,64.92
2022-10-18T02:27:41.422Z,64.75
2022-10-18T02:28:45.062Z,64.75
2022-10-18T02:29:47.164Z,65.38
2022-10-18T02:30:58.972Z,65.12
2022-10-18T02:32:17.640Z,64.64
2022-10-18T02:33:32.595Z,64.35
2022-10-18T02:34:46.681Z,64.30
2022-10-18T02:35:54.498Z,64.12
2022-10-18T02:36:59.534Z,64.03
2022-10-18T02:38:04.447Z,63.86
2022-10-18T02:39:14.714Z,64.38
2022-10-18T02:40:17.381Z,64.14
2022-10-18T02:41:27.207Z,63.95
2022-10-18T02:42:40.490Z,63.83
2022-10-18T02:43:42.148Z,63.92
2022-10-18T02:44:43.843Z,63.54
2022-10-18T02:45:45.529Z,63.45
2022-10-18T02:46:47.974Z,63.90
2022-10-18T02:47:49.651Z,63.38
2022-10-18T02:48:51.426Z,62.95
2022-10-18T02:49:53.130Z,63.50
2022-10-18T02:50:54.787Z,63.18
2022-10-18T02:51:56.437Z,63.39
2022-10-18T02:52:58.084Z,63.42
2022-10-18T02:53:59.797Z,63.28
2022-10-18T02:55:01.961Z,62.63
2022-10-18T02:56:03.706Z,62.51
2022-10-18T02:57:05.389Z,62.70
2022-10-18T02:58:07.088Z,63.25
2022-10-18T02:59:08.772Z,63.21
2022-10-18T03:00:10.974Z,63.61
2022-10-18T03:01:12.694Z,63.37
2022-10-18T03:02:14.435Z,62.65
2022-10-18T03:03:16.074Z,62.44
2022-10-18T03:04:17.811Z,62.27
2022-10-18T03:05:19.623Z,62.66
2022-10-18T03:06:21.289Z,62.96
2022-10-18T03:07:23.051Z,62.47
2022-10-18T03:08:24.769Z,62.86
2022-10-18T03:09:26.507Z,62.99
2022-10-18T03:10:28.176Z,62.54
2022-10-18T03:11:29.840Z,62.41
2022-10-18T03:12:31.493Z,62.03
2022-10-18T03:13:34.423Z,62.02
2022-10-18T03:14:36.274Z,61.85
2022-10-18T03:15:38.125Z,61.90
2022-10-18T03:16:39.889Z,62.02
2022-10-18T03:17:41.542Z,62.00
2022-10-18T03:18:43.269Z,61.89
2022-10-18T03:19:44.974Z,61.71
2022-10-18T03:20:46.665Z,62.66
2022-10-18T03:21:48.406Z,62.87
2022-10-18T03:22:50.182Z,62.65
2022-10-18T03:23:51.833Z,62.03
2022-10-18T03:24:54.088Z,62.03
2022-10-18T03:25:55.724Z,62.09
2022-10-18T03:26:57.477Z,61.78
2022-10-18T03:27:59.116Z,62.20
2022-10-18T03:29:00.915Z,61.88
2022-10-18T03:30:02.636Z,62.19
2022-10-18T03:31:05.104Z,62.32
2022-10-18T03:32:07.119Z,62.50
2022-10-18T03:33:08.765Z,62.10
2022-10-18T03:34:10.470Z,62.22
2022-10-18T03:35:12.231Z,62.34
2022-10-18T03:36:14.020Z,61.41
2022-10-18T03:37:16.437Z,61.23
2022-10-18T03:38:18.087Z,61.35
2022-10-18T03:39:19.758Z,61.46
2022-10-18T03:40:21.472Z,61.35
2022-10-18T03:41:23.160Z,60.89
2022-10-18T03:42:24.856Z,60.47
2022-10-18T03:43:26.501Z,60.74
2022-10-18T03:44:28.169Z,60.87
2022-10-18T03:45:31.365Z,61.09
2022-10-18T03:46:33.379Z,60.71
2022-10-18T03:47:35.077Z,61.21
2022-10-18T03:48:36.741Z,61.20
2022-10-18T03:49:38.502Z,61.13
2022-10-18T03:50:40.299Z,61.24
2022-10-18T03:51:42.073Z,61.32
2022-10-18T03:52:43.973Z,61.12
2022-10-18T03:53:45.627Z,61.51
2022-10-18T03:54:47.278Z,61.88
2022-10-18T03:55:53.334Z,62.31
2022-10-18T03:56:55.008Z,62.71
2022-10-18T03:57:56.817Z,63.04
2022-10-18T03:58:58.515Z,62.67
2022-10-18T04:00:00.183Z,62.50
2022-10-18T04:01:01.872Z,62.60
2022-10-18T04:02:03.638Z,62.76
2022-10-18T04:03:05.380Z,62.84
2022-10-18T04:04:07.050Z,62.51
2022-10-18T04:05:09.100Z,62.74
2022-10-18T04:06:10.859Z,62.48
2022-10-18T04:07:12.515Z,63.42
2022-10-18T04:08:15.354Z,63.17
2022-10-18T04:09:17.056Z,62.92
2022-10-18T04:10:18.857Z,62.76
2022-10-18T04:11:20.547Z,62.93
2022-10-18T04:12:22.289Z,63.34
2022-10-18T04:13:23.924Z,62.97
2022-10-18T04:14:25.758Z,62.92
2022-10-18T04:15:27.390Z,62.86
2022-10-18T04:16:29.122Z,63.01
2022-10-18T04:17:31.031Z,62.61
2022-10-18T04:18:32.843Z,63.03
2022-10-18T04:19:34.515Z,62.79
2022-10-18T04:20:36.183Z,62.95
2022-10-18T04:21:37.926Z,63.39
2022-10-18T04:22:39.651Z,63.19
2022-10-18T04:23:41.362Z,62.89
2022-10-18T04:24:43.046Z,63.29
2022-10-18T04:25:44.671Z,63.24
2022-10-18T04:26:46.350Z,63.40
2022-10-18T04:27:48.181Z,62.86
2022-10-18T04:28:49.960Z,63.31
2022-10-18T04:29:51.657Z,63.34
2022-10-18T04:30:53.617Z,63.68
2022-10-18T04:31:55.274Z,63.29
2022-10-18T04:32:56.968Z,63.35
2022-10-18T04:33:58.615Z,63.04
2022-10-18T04:35:00.253Z,63.94
2022-10-18T04:36:02.226Z,64.08
2022-10-18T04:37:03.889Z,64.14
2022-10-18T04:38:05.587Z,64.91
2022-10-18T04:39:07.322Z,64.73
2022-10-18T04:40:09.655Z,64.48
2022-10-18T04:41:11.303Z,64.76
2022-10-18T04:42:13.420Z,65.32
2022-10-18T04:43:15.352Z,64.68
2022-10-18T04:44:16.991Z,64.43
2022-10-18T04:45:18.624Z,64.48
2022-10-18T04:46:20.371Z,64.71
2022-10-18T04:47:22.071Z,64.98
2022-10-18T04:48:23.736Z,65.19
2022-10-18T04:49:25.449Z,64.96
2022-10-18T04:50:27.503Z,65.53
2022-10-18T04:51:29.670Z,65.70
2022-10-18T04:52:31.745Z,65.77
2022-10-18T04:53:33.410Z,65.36
2022-10-18T04:54:35.243Z,64.64
2022-10-18T04:55:36.898Z,64.15
2022-10-18T04:56:38.633Z,63.70
2022-10-18T04:57:40.313Z,63.71
2022-10-18T04:58:41.947Z,64.66
2022-10-18T04:59:43.615Z,64.54
2022-10-18T05:00:45.312Z,64.77
2022-10-18T05:01:47.287Z,64.91
2022-10-18T05:02:49.081Z,64.86
2022-10-18T05:03:54.578Z,65.19
2022-10-18T05:04:56.214Z,64.89
2022-10-18T05:06:01.640Z,64.47
2022-10-18T05:07:06.681Z,64.27
2022-10-18T05:08:08.452Z,63.72
2022-10-18T05:09:10.134Z,63.48
2022-10-18T05:10:11.854Z,63.83
2022-10-18T05:11:13.553Z,63.69
2022-10-18T05:12:15.293Z,63.76
2022-10-18T05:13:17.063Z,63.50
2022-10-18T05:14:18.880Z,63.47
2022-10-18T05:15:20.560Z,63.17
2022-10-18T05:16:22.290Z,63.36
2022-10-18T05:17:23.948Z,63.76
2022-10-18T05:18:25.675Z,63.71
2022-10-18T05:19:27.407Z,63.54
2022-10-18T05:20:29.082Z,63.04
2022-10-18T05:21:30.841Z,63.25
2022-10-18T05:22:33.244Z,63.21
2022-10-18T05:23:35.125Z,62.84
2022-10-18T05:24:36.774Z,62.57
2022-10-18T05:25:39.783Z,62.31
2022-10-18T05:26:41.431Z,62.56
2022-10-18T05:27:43.076Z,62.15
2022-10-18T05:28:44.831Z,62.06
2022-10-18T05:29:46.531Z,62.12
2022-10-18T05:30:48.210Z,61.61
2022-10-18T05:31:50.385Z,61.49
2022-10-18T05:32:52.038Z,60.36
2022-10-18T05:33:53.689Z,60.28
2022-10-18T05:34:55.348Z,59.94
2022-10-18T05:35:57.082Z,59.63
2022-10-18T05:36:59.462Z,59.33
2022-10-18T05:38:06.043Z,59.35
2022-10-18T05:39:07.808Z,58.75
2022-10-18T05:40:10.041Z,58.56
2022-10-18T05:41:12.846Z,58.78
2022-10-18T05:42:14.544Z,58.16
2022-10-18T05:43:17.882Z,58.26
2022-10-18T05:44:19.719Z,58.18
2022-10-18T05:45:21.366Z,57.88
2022-10-18T05:46:23.044Z,57.62
2022-10-18T05:47:24.810Z,57.90
2022-10-18T05:48:26.834Z,57.02
2022-10-18T05:49:28.484Z,56.96
2022-10-18T05:50:30.135Z,56.66
2022-10-18T05:51:31.900Z,55.89
2022-10-18T05:52:33.858Z,56.40
2022-10-18T05:53:37.105Z,56.45
2022-10-18T05:54:39.615Z,56.51
2022-10-18T05:55:41.253Z,56.40
2022-10-18T05:56:42.971Z,56.81
2022-10-18T05:57:49.955Z,56.22
2022-10-18T05:58:52.340Z,56.75
2022-10-18T05:59:54.013Z,56.34
2022-10-18T06:00:59.962Z,56.57
2022-10-18T06:02:01.645Z,55.87
2022-10-18T06:03:03.351Z,56.25
2022-10-18T06:04:05.626Z,55.76
2022-10-18T06:05:07.594Z,55.31
2022-10-18T06:06:11.740Z,56.30
2022-10-18T06:07:13.527Z,55.78
2022-10-18T06:08:15.208Z,55.73
2022-10-18T06:09:16.854Z,56.10
2022-10-18T06:10:18.615Z,55.17
2022-10-18T06:11:20.767Z,55.17
2022-10-18T06:12:22.418Z,55.56
2022-10-18T06:13:24.300Z,55.48
2022-10-18T06:14:26.023Z,54.95
2022-10-18T06:15:27.766Z,54.83
2022-10-18T06:16:32.464Z,55.61
2022-10-18T06:17:34.753Z,54.45
2022-10-18T06:18:37.178Z,53.64
2022-10-18T06:19:38.817Z,53.82
2022-10-18T06:20:40.521Z,54.14
2022-10-18T06:21:43.929Z,54.46
2022-10-18T06:22:45.564Z,54.47
2022-10-18T06:23:50.840Z,55.23
2022-10-18T06:24:57.128Z,55.11
2022-10-18T06:26:10.861Z,55.14
2022-10-18T06:27:12.619Z,54.86
2022-10-18T06:28:14.287Z,54.68
2022-10-18T06:29:16.061Z,54.76
2022-10-18T06:30:17.763Z,54.35
2022-10-18T06:31:20.726Z,53.97
2022-10-18T06:32:22.406Z,54.57
2022-10-18T06:33:24.181Z,53.68
2022-10-18T06:34:25.891Z,53.88
2022-10-18T06:35:27.586Z,54.44
2022-10-18T06:36:29.302Z,54.96
2022-10-18T06:37:31.336Z,54.01
2022-10-18T06:38:33.798Z,55.42
2022-10-18T06:39:35.446Z,55.57
2022-10-18T06:40:38.311Z,55.23
2022-10-18T06:41:39.969Z,57.56
2022-10-18T06:42:43.572Z,56.55
2022-10-18T06:43:50.661Z,56.60
2022-10-18T06:44:52.311Z,58.70
2022-10-18T06:45:54.509Z,56.64
2022-10-18T06:46:56.216Z,55.65
2022-10-18T06:47:58.681Z,54.80
2022-10-18T06:49:00.322Z,52.85
2022-10-18T06:50:02.157Z,52.14
2022-10-18T06:51:06.698Z,50.88
2022-10-18T06:52:08.413Z,50.55
2022-10-18T06:53:10.140Z,48.57
2022-10-18T06:54:18.044Z,46.87
2022-10-18T06:55:19.970Z,43.44
2022-10-18T06:56:21.767Z,43.75
2022-10-18T06:57:23.416Z,42.80
2022-10-18T06:58:25.196Z,41.73
2022-10-18T06:59:29.002Z,41.14
2022-10-18T07:00:32.919Z,39.80
2022-10-18T07:01:34.726Z,39.50
2022-10-18T07:02:37.610Z,37.46
2022-10-18T07:03:40.103Z,37.51
2022-10-18T07:04:41.787Z,36.31
2022-10-18T07:05:43.542Z,35.49
2022-10-18T07:06:45.676Z,35.08
2022-10-18T07:07:47.335Z,33.96
2022-10-18T07:08:50.815Z,33.97
2022-10-18T07:09:52.506Z,33.63
2022-10-18T07:10:54.363Z,32.67
2022-10-18T07:11:56.018Z,32.33
2022-10-18T07:13:19.677Z,32.45
2022-10-18T07:14:19.367Z,31.30
2022-10-18T07:15:24.176Z,31.68
2022-10-18T07:16:25.931Z,32.14
2022-10-18T07:17:28.031Z,30.47
2022-10-18T07:18:29.778Z,30.34
2022-10-18T07:19:31.505Z,29.74
2022-10-18T07:20:33.847Z,28.94
2022-10-18T07:21:35.542Z,29.27
2022-10-18T07:22:38.309Z,28.67
2022-10-18T07:23:42.513Z,28.01
2022-10-18T07:24:44.288Z,27.42
2022-10-18T07:25:46.096Z,27.41
2022-10-18T07:26:47.772Z,26.48
2022-10-18T07:27:49.443Z,26.72
2022-10-18T07:28:55.937Z,27.84
2022-10-18T07:29:58.107Z,27.04
2022-10-18T07:31:06.249Z,26.23
2022-10-18T07:32:08.017Z,26.73
2022-10-18T07:33:09.685Z,25.94
2022-10-18T07:34:13.576Z,25.92
2022-10-18T07:35:15.285Z,25.56
2022-10-18T07:36:17.577Z,24.88
2022-10-18T07:37:19.264Z,24.41
2022-10-18T07:38:20.968Z,24.43
2022-10-18T07:39:22.733Z,25.20
2022-10-18T07:40:24.398Z,25.54
2022-10-18T07:41:26.408Z,24.11
2022-10-18T07:42:28.132Z,24.21
2022-10-18T07:43:30.798Z,24.34
2022-10-18T07:44:32.485Z,24.68
2022-10-18T07:45:34.183Z,24.21
2022-10-18T07:46:35.962Z,24.17
2022-10-18T07:47:37.938Z,23.80
2022-10-18T07:48:39.857Z,22.70
2022-10-18T07:49:41.567Z,22.50
2022-10-18T07:50:43.210Z,21.71
2022-10-18T07:51:44.861Z,22.49
2022-10-18T07:52:46.513Z,22.36
2022-10-18T07:53:48.512Z,23.00
2022-10-18T07:56:03.393Z,21.79
2022-10-18T07:57:07.522Z,21.13
2022-10-18T07:58:09.179Z,21.01
2022-10-18T07:59:11.474Z,20.80
2022-10-18T08:00:13.441Z,21.06
2022-10-18T08:01:15.881Z,21.11
2022-10-18T08:02:17.686Z,21.20
2022-10-18T08:03:19.690Z,21.41
2022-10-18T08:04:21.485Z,20.66
2022-10-18T08:05:23.284Z,21.04
2022-10-18T08:06:25.020Z,20.53
2022-10-18T08:07:26.800Z,21.30
2022-10-18T08:08:29.711Z,20.37
2022-10-18T08:09:31.347Z,20.58
2022-10-18T08:10:35.179Z,21.40
2022-10-18T08:11:36.828Z,20.83
2022-10-18T08:12:38.497Z,20.05
2022-10-18T08:13:40.741Z,21.33
2022-10-18T08:14:42.669Z,21.55
2022-10-18T08:15:45.017Z,20.61
2022-10-18T08:16:46.730Z,21.42
2022-10-18T08:17:48.402Z,21.54
2022-10-18T08:18:50.181Z,20.67
2022-10-18T08:20:04.785Z,21.44
2022-10-18T08:21:15.780Z,20.02
2022-10-18T08:22:17.490Z,20.30
2022-10-18T08:23:19.161Z,20.48
2022-10-18T08:24:20.842Z,20.39
2022-10-18T08:25:22.521Z,20.09
2022-10-18T08:26:24.264Z,18.96
2022-10-18T08:27:26.516Z,19.46
2022-10-18T08:28:28.279Z,19.71
2022-10-18T08:29:32.050Z,19.64
2022-10-18T08:30:35.982Z,19.06
2022-10-18T08:31:37.729Z,18.86
2022-10-18T08:32:39.417Z,18.87
2022-10-18T08:33:41.177Z,19.17
2022-10-18T08:34:42.829Z,19.08
2022-10-18T08:35:54.147Z,19.35
2022-10-18T08:36:55.814Z,19.85
2022-10-18T08:37:57.888Z,18.54
2022-10-18T08:38:59.701Z,18.98
2022-10-18T08:40:01.495Z,19.37
2022-10-18T08:41:26.617Z,19.43
2022-10-18T08:42:49.698Z,18.70
2022-10-18T08:44:06.370Z,17.99
2022-10-18T08:45:29.741Z,18.35
2022-10-18T08:46:37.184Z,18.18
2022-10-18T08:47:49.307Z,18.22
2022-10-18T08:48:55.264Z,18.38
2022-10-18T08:50:01.071Z,19.13
2022-10-18T08:51:07.360Z,18.88
2022-10-18T08:52:45.206Z,18.88
2022-10-18T08:53:57.423Z,19.18
2022-10-18T08:55:10.090Z,18.42
2022-10-18T08:56:15.077Z,18.73
2022-10-18T08:57:18.409Z,18.16
2022-10-18T08:58:30.877Z,17.91
2022-10-18T08:59:39.185Z,18.19
2022-10-18T09:00:50.176Z,18.18
2022-10-18T09:02:04.715Z,18.59
2022-10-18T09:03:26.899Z,17.71
2022-10-18T09:04:36.887Z,19.21
2022-10-18T09:05:48.873Z,18.31
2022-10-18T09:07:00.818Z,19.51
2022-10-18T09:08:14.234Z,18.26
2022-10-18T09:09:24.988Z,18.30
2022-10-18T09:10:45.307Z,18.13
2022-10-18T09:11:58.114Z,18.29
2022-10-18T09:13:24.502Z,19.16
2022-10-18T09:14:36.634Z,17.93
2022-10-18T09:15:49.608Z,17.48
2022-10-18T09:17:16.261Z,18.44
2022-10-18T09:18:39.769Z,17.47
2022-10-18T09:20:02.122Z,18.13
2022-10-18T09:21:35.609Z,19.36
2022-10-18T09:22:54.073Z,18.76
2022-10-18T09:24:02.263Z,19.27
2022-10-18T09:25:16.460Z,18.92
2022-10-18T09:26:23.761Z,17.75
2022-10-18T09:27:46.082Z,17.89
2022-10-18T09:29:13.543Z,20.15
2022-10-18T09:30:26.658Z,18.84
2022-10-18T09:31:49.706Z,18.75
2022-10-18T09:33:01.725Z,19.73
2022-10-18T09:34:10.434Z,18.53
2022-10-18T09:35:25.582Z,18.84
2022-10-18T09:36:35.662Z,18.60
2022-10-18T09:37:38.055Z,18.66
2022-10-18T09:38:48.827Z,18.61
2022-10-18T09:39:59.401Z,18.57
2022-10-18T09:41:08.861Z,18.99
2022-10-18T09:42:28.719Z,18.29
2022-10-18T09:43:43.859Z,17.72
2022-10-18T09:44:53.682Z,17.97
2022-10-18T09:45:56.845Z,19.17
2022-10-18T09:47:26.819Z,18.50
2022-10-18T09:48:46.519Z,20.15
2022-10-18T09:49:55.014Z,19.54
2022-10-18T09:51:02.484Z,18.81
2022-10-18T09:52:09.244Z,19.34
2022-10-18T09:53:12.325Z,17.84
2022-10-18T09:54:26.240Z,18.15
2022-10-18T09:55:35.067Z,17.71
2022-10-18T09:56:45.107Z,17.60
2022-10-18T09:58:08.226Z,17.91
2022-10-18T09:59:24.626Z,18.00
2022-10-18T10:00:31.484Z,17.48
2022-10-18T10:01:33.815Z,17.98
2022-10-18T10:02:35.639Z,18.90
2022-10-18T10:03:37.602Z,17.25
2022-10-18T10:04:39.296Z,18.35
2022-10-18T10:05:42.069Z,20.10
2022-10-18T10:06:53.548Z,19.33
2022-10-18T10:07:59.977Z,18.65
2022-10-18T10:09:14.886Z,19.06
2022-10-18T10:10:21.609Z,17.85
2022-10-18T10:11:27.946Z,19.55
2022-10-18T10:12:35.631Z,18.96
2022-10-18T10:13:37.315Z,17.98
2022-10-18T10:14:44.409Z,18.46
2022-10-18T10:15:52.179Z,18.67
2022-10-18T10:17:03.875Z,20.72
2022-10-18T10:18:21.604Z,20.38
2022-10-18T10:20:20.638Z,21.53
2022-10-18T10:21:22.608Z,21.22
2022-10-18T10:22:32.680Z,22.49
2022-10-18T10:23:44.672Z,21.64
2022-10-18T10:24:51.200Z,21.34
2022-10-18T10:26:01.234Z,21.33
2022-10-18T10:27:06.223Z,20.29
2022-10-18T10:28:18.522Z,19.74
2022-10-18T10:29:47.780Z,19.83
2022-10-18T10:30:50.089Z,20.52
2022-10-18T10:32:19.805Z,19.89
2022-10-18T10:33:38.935Z,19.53
2022-10-18T10:34:44.883Z,18.56
2022-10-18T10:35:58.817Z,19.08
2022-10-18T10:37:00.477Z,18.52
2022-10-18T10:38:03.125Z,18.91
2022-10-18T10:39:19.387Z,17.67
2022-10-18T10:40:28.530Z,18.19
2022-10-18T10:42:37.999Z,18.97
2022-10-18T10:43:40.444Z,18.40
2022-10-18T10:44:54.596Z,17.98
2022-10-18T10:46:05.353Z,18.46
2022-10-18T10:47:07.077Z,18.99
2022-10-18T10:48:15.382Z,19.01
2022-10-18T10:49:41.173Z,19.94
2022-10-18T10:50:58.294Z,19.66
2022-10-18T10:52:15.387Z,19.41
2022-10-18T10:53:32.669Z,19.10
2022-10-18T10:54:39.137Z,18.25
2022-10-18T10:55:40.848Z,18.53
2022-10-18T10:56:51.426Z,18.82
2022-10-18T10:57:53.856Z,18.57
2022-10-18T10:59:01.202Z,18.46
2022-10-18T11:00:04.331Z,18.68
2022-10-18T11:01:36.501Z,18.28
2022-10-18T11:02:38.226Z,18.86
2022-10-18T11:03:46.880Z,19.00
2022-10-18T11:04:51.417Z,19.41
2022-10-18T11:05:58.857Z,20.30
2022-10-18T11:07:04.614Z,19.35
2022-10-18T11:08:06.464Z,19.92
2022-10-18T11:09:26.872Z,20.14
2022-10-18T11:10:34.860Z,20.08
2022-10-18T11:11:46.738Z,19.53
2022-10-18T11:13:23.952Z,20.01
2022-10-18T11:14:30.402Z,19.35
2022-10-18T11:15:52.565Z,19.77
2022-10-18T11:17:08.440Z,21.49
2022-10-18T11:18:34.338Z,20.47
2022-10-18T11:19:45.909Z,19.74
2022-10-18T11:21:01.398Z,19.93
2022-10-18T11:22:06.075Z,20.20
2022-10-18T11:23:18.127Z,20.11
2022-10-18T11:24:20.872Z,20.18
2022-10-18T11:25:29.232Z,21.80
2022-10-18T11:26:43.708Z,21.16
2022-10-18T11:28:03.273Z,21.11
2022-10-18T11:29:23.026Z,24.89
2022-10-18T11:30:36.400Z,23.21
2022-10-18T11:31:41.083Z,22.62
2022-10-18T11:33:12.033Z,23.46
2022-10-18T11:34:36.867Z,24.30
2022-10-18T11:35:41.274Z,25.20
2022-10-18T11:37:09.689Z,24.48
2022-10-18T11:38:25.341Z,26.49
2022-10-18T11:39:49.804Z,25.30
2022-10-18T11:40:54.296Z,25.73
2022-10-18T11:42:02.281Z,25.42
2022-10-18T11:43:09.990Z,25.65
2022-10-18T11:44:27.622Z,25.27
2022-10-18T11:45:54.005Z,25.62
2022-10-18T11:46:58.264Z,25.37
2022-10-18T11:48:13.727Z,25.80
2022-10-18T11:49:41.638Z,25.82
2022-10-18T11:51:09.447Z,26.29
2022-10-18T11:52:15.861Z,26.31
2022-10-18T11:53:29.432Z,26.24
2022-10-18T11:54:48.945Z,26.77
2022-10-18T11:56:47.600Z,27.92
2022-10-18T11:58:22.404Z,27.44
2022-10-18T11:59:37.973Z,29.07
2022-10-18T12:00:53.957Z,29.08
2022-10-18T12:01:58.267Z,27.54
2022-10-18T12:02:59.938Z,28.00
2022-10-18T12:04:24.626Z,27.86
2022-10-18T12:05:27.519Z,27.59
2022-10-18T12:06:35.493Z,27.88
2022-10-18T12:07:44.077Z,27.30
2022-10-18T12:08:50.015Z,27.30
2022-10-18T12:09:55.175Z,27.92
2022-10-18T12:11:05.442Z,27.48
2022-10-18T12:12:10.260Z,27.23
2022-10-18T12:13:25.757Z,27.64
2022-10-18T12:14:33.492Z,26.77
2022-10-18T12:15:39.568Z,26.76
2022-10-18T12:16:51.476Z,26.87
2022-10-18T12:17:59.580Z,26.24
2022-10-18T12:19:11.729Z,26.54
2022-10-18T12:20:50.908Z,26.52
2022-10-18T12:21:53.522Z,26.54
2022-10-18T12:23:07.533Z,27.04
2022-10-18T12:24:16.173Z,27.00
2022-10-18T12:25:18.913Z,26.30
2022-10-18T12:26:21.970Z,27.27
2022-10-18T12:27:36.672Z,26.96
2022-10-18T12:29:07.117Z,26.77
2022-10-18T12:30:23.928Z,27.26
2022-10-18T12:31:35.130Z,28.72
2022-10-18T12:32:37.957Z,28.60
2022-10-18T12:33:44.918Z,28.15
2022-10-18T12:34:58.011Z,27.69
2022-10-18T12:35:59.617Z,27.64
2022-10-18T12:37:10.140Z,28.00
2022-10-18T12:38:26.939Z,27.04
2022-10-18T12:39:43.762Z,27.23
2022-10-18T12:40:55.959Z,28.10
2022-10-18T12:41:57.975Z,28.00
2022-10-18T12:42:59.823Z,28.42
2022-10-18T12:44:26.622Z,28.21
2022-10-18T12:45:33.514Z,30.43
2022-10-18T12:46:49.811Z,28.07
2022-10-18T12:47:52.292Z,27.90
2022-10-18T12:49:05.605Z,27.81
2022-10-18T12:50:28.653Z,29.30
2022-10-18T12:51:30.488Z,30.52
2022-10-18T12:52:37.213Z,30.46
2022-10-18T12:53:39.888Z,28.73
2022-10-18T12:55:00.452Z,28.65
2022-10-18T12:56:29.723Z,28.83
2022-10-18T12:57:52.858Z,29.15
2022-10-18T12:59:13.088Z,28.15
2022-10-18T13:00:34.963Z,28.70
2022-10-18T13:01:52.106Z,28.15
2022-10-18T13:03:31.190Z,29.23
2022-10-18T13:04:34.893Z,28.98
2022-10-18T13:05:53.476Z,29.03
2022-10-18T13:06:59.704Z,28.16
2022-10-18T13:08:29.365Z,29.26
2022-10-18T13:09:36.154Z,29.98
2022-10-18T13:10:38.304Z,28.84
2022-10-18T13:11:40.484Z,28.94
2022-10-18T13:12:59.000Z,28.49
2022-10-18T13:14:25.541Z,28.42
2022-10-18T13:15:41.516Z,28.95
2022-10-18T13:17:06.060Z,29.09
2022-10-18T13:18:19.054Z,29.52
2022-10-18T13:19:29.885Z,29.03
2022-10-18T13:20:40.819Z,28.37
2022-10-18T13:22:08.661Z,29.70
2022-10-18T13:23:38.406Z,29.39
2022-10-18T13:25:04.304Z,29.67
2022-10-18T13:26:20.082Z,28.68
2022-10-18T13:27:49.151Z,28.03
2022-10-18T13:29:34.311Z,27.70
2022-10-18T13:30:48.215Z,25.96
2022-10-18T13:31:59.214Z,26.21
2022-10-18T13:33:19.790Z,26.75
2022-10-18T13:34:22.522Z,27.88
2022-10-18T13:35:55.115Z,27.72
2022-10-18T13:37:11.795Z,28.49
2022-10-18T13:38:47.422Z,28.25
2022-10-18T13:39:49.243Z,27.51
2022-10-18T13:41:21.313Z,27.35
2022-10-18T13:42:33.066Z,27.66
2022-10-18T13:43:53.461Z,26.71
2022-10-18T13:44:55.202Z,26.67
2022-10-18T13:45:56.970Z,26.23
2022-10-18T13:46:58.642Z,25.50
2022-10-18T13:48:31.295Z,27.00
2022-10-18T13:49:38.707Z,26.72
2022-10-18T13:50:43.185Z,25.55
2022-10-18T13:52:06.374Z,25.83
2022-10-18T13:53:19.849Z,24.42
2022-10-18T13:54:46.278Z,24.68
2022-10-18T13:56:09.219Z,24.46
2022-10-18T13:57:26.207Z,25.62
2022-10-18T13:59:13.033Z,24.95
2022-10-18T14:00:31.198Z,24.35
2022-10-18T14:01:52.773Z,24.33
2022-10-18T14:03:31.601Z,23.58
2022-10-18T14:05:16.892Z,24.34
2022-10-18T14:06:33.778Z,23.06
2022-10-18T14:07:36.781Z,23.38
2022-10-18T14:09:13.822Z,22.64
2022-10-18T14:10:50.223Z,22.57
2022-10-18T14:12:08.916Z,21.67
2022-10-18T14:13:20.521Z,24.03
2022-10-18T14:14:34.513Z,26.39
2022-10-18T14:15:43.476Z,26.38
2022-10-18T14:17:08.652Z,26.83
2022-10-18T14:18:19.017Z,27.00
2022-10-18T14:19:34.231Z,27.30
2022-10-18T14:20:55.320Z,27.24
2022-10-18T14:22:14.079Z,27.66
2022-10-18T14:23:24.788Z,27.02
2022-10-18T14:24:27.625Z,27.87
2022-10-18T14:25:33.020Z,28.09
2022-10-18T14:26:34.714Z,27.46
2022-10-18T14:27:37.097Z,28.00
2022-10-18T14:28:58.578Z,28.06
2022-10-18T14:30:17.715Z,28.34
2022-10-18T14:31:20.309Z,27.88
2022-10-18T14:32:29.454Z,28.90
2022-10-18T14:33:38.317Z,28.20
2022-10-18T14:34:44.366Z,27.80
2022-10-18T14:35:59.240Z,28.05
2022-10-18T14:37:01.960Z,28.87
2022-10-18T14:38:03.747Z,28.70